sensor_id;sensor_type;location;lat;lon;timestamp;P1;durP1;ratioP1;P2;durP2;ratioP2
58752;SDS011;44525;46.052;13.610;2023-03-13T00:00:14;12.52;;;6.30;;
58752;SDS011;44525;46.052;13.610;2023-03-13T00:02:41;7.53;;;4.65;;
58752;SDS011;44525;46.052;13.610;2023-03-13T00:05:09;9.93;;;5.07;;
58752;SDS011;44525;46.052;13.610;2023-03-13T00:07:35;9.85;;;5.80;;
58752;SDS011;44525;46.052;13.610;2023-03-13T00:10:01;9.65;;;5.18;;
58752;SDS011;44525;46.052;13.610;2023-03-13T00:12:26;11.07;;;6.25;;
58752;SDS011;44525;46.052;13.610;2023-03-13T00:14:51;6.07;;;3.88;;
58752;SDS011;44525;46.052;13.610;2023-03-13T00:17:17;7.20;;;4.50;;
58752;SDS011;44525;46.052;13.610;2023-03-13T00:19:42;8.73;;;5.10;;
58752;SDS011;44525;46.052;13.610;2023-03-13T00:22:07;9.05;;;4.78;;
58752;SDS011;44525;46.052;13.610;2023-03-13T00:24:33;7.93;;;5.00;;
58752;SDS011;44525;46.052;13.610;2023-03-13T00:26:58;6.75;;;4.45;;
58752;SDS011;44525;46.052;13.610;2023-03-13T00:29:27;7.97;;;5.00;;
58752;SDS011;44525;46.052;13.610;2023-03-13T00:31:53;9.45;;;6.47;;
58752;SDS011;44525;46.052;13.610;2023-03-13T00:34:18;9.07;;;6.13;;
58752;SDS011;44525;46.052;13.610;2023-03-13T00:36:44;11.70;;;5.63;;
58752;SDS011;44525;46.052;13.610;2023-03-13T00:39:09;12.20;;;6.25;;
58752;SDS011;44525;46.052;13.610;2023-03-13T00:41:35;9.45;;;5.68;;
58752;SDS011;44525;46.052;13.610;2023-03-13T00:44:01;12.82;;;6.90;;
58752;SDS011;44525;46.052;13.610;2023-03-13T00:46:27;11.50;;;6.20;;
58752;SDS011;44525;46.052;13.610;2023-03-13T00:48:54;8.85;;;5.95;;
58752;SDS011;44525;46.052;13.610;2023-03-13T00:51:20;11.13;;;5.90;;
58752;SDS011;44525;46.052;13.610;2023-03-13T00:53:47;9.02;;;4.95;;
58752;SDS011;44525;46.052;13.610;2023-03-13T00:56:17;10.27;;;4.88;;
58752;SDS011;44525;46.052;13.610;2023-03-13T00:58:44;10.68;;;4.55;;
58752;SDS011;44525;46.052;13.610;2023-03-13T01:03:39;8.73;;;4.57;;
58752;SDS011;44525;46.052;13.610;2023-03-13T01:06:07;7.72;;;4.45;;
58752;SDS011;44525;46.052;13.610;2023-03-13T01:08:34;7.15;;;4.38;;
58752;SDS011;44525;46.052;13.610;2023-03-13T01:11:01;9.52;;;4.35;;
58752;SDS011;44525;46.052;13.610;2023-03-13T01:13:37;8.73;;;4.30;;
58752;SDS011;44525;46.052;13.610;2023-03-13T01:18:32;8.18;;;4.28;;
58752;SDS011;44525;46.052;13.610;2023-03-13T01:20:58;8.52;;;4.38;;
58752;SDS011;44525;46.052;13.610;2023-03-13T01:23:24;10.40;;;4.30;;
58752;SDS011;44525;46.052;13.610;2023-03-13T01:25:50;8.45;;;4.50;;
58752;SDS011;44525;46.052;13.610;2023-03-13T01:28:15;10.77;;;4.80;;
58752;SDS011;44525;46.052;13.610;2023-03-13T01:30:40;6.35;;;4.07;;
58752;SDS011;44525;46.052;13.610;2023-03-13T01:33:06;10.07;;;4.50;;
58752;SDS011;44525;46.052;13.610;2023-03-13T01:35:31;8.52;;;4.35;;
58752;SDS011;44525;46.052;13.610;2023-03-13T01:37:57;10.40;;;5.45;;
58752;SDS011;44525;46.052;13.610;2023-03-13T01:40:22;9.65;;;5.60;;
58752;SDS011;44525;46.052;13.610;2023-03-13T01:42:48;9.27;;;5.22;;
58752;SDS011;44525;46.052;13.610;2023-03-13T01:48:21;8.10;;;3.90;;
58752;SDS011;44525;46.052;13.610;2023-03-13T01:50:54;8.68;;;4.03;;
58752;SDS011;44525;46.052;13.610;2023-03-13T01:53:23;7.15;;;3.80;;
58752;SDS011;44525;46.052;13.610;2023-03-13T01:55:50;5.38;;;3.47;;
58752;SDS011;44525;46.052;13.610;2023-03-13T01:58:17;6.20;;;3.35;;
58752;SDS011;44525;46.052;13.610;2023-03-13T02:00:43;4.95;;;3.45;;
58752;SDS011;44525;46.052;13.610;2023-03-13T02:03:11;7.20;;;3.70;;
58752;SDS011;44525;46.052;13.610;2023-03-13T02:05:41;5.65;;;3.63;;
58752;SDS011;44525;46.052;13.610;2023-03-13T02:10:43;5.72;;;3.80;;
58752;SDS011;44525;46.052;13.610;2023-03-13T02:13:15;5.43;;;3.65;;
58752;SDS011;44525;46.052;13.610;2023-03-13T02:15:41;6.55;;;3.92;;
58752;SDS011;44525;46.052;13.610;2023-03-13T02:18:07;10.02;;;4.43;;
58752;SDS011;44525;46.052;13.610;2023-03-13T02:20:32;6.35;;;4.15;;
58752;SDS011;44525;46.052;13.610;2023-03-13T02:25:48;7.72;;;4.20;;
58752;SDS011;44525;46.052;13.610;2023-03-13T02:30:57;6.80;;;3.92;;
58752;SDS011;44525;46.052;13.610;2023-03-13T02:33:28;7.85;;;4.45;;
58752;SDS011;44525;46.052;13.610;2023-03-13T02:35:55;6.40;;;4.20;;
58752;SDS011;44525;46.052;13.610;2023-03-13T02:38:24;6.68;;;3.80;;
58752;SDS011;44525;46.052;13.610;2023-03-13T02:40:53;7.57;;;4.40;;
58752;SDS011;44525;46.052;13.610;2023-03-13T02:43:25;6.68;;;3.97;;
58752;SDS011;44525;46.052;13.610;2023-03-13T02:48:33;7.57;;;4.07;;
58752;SDS011;44525;46.052;13.610;2023-03-13T02:51:02;5.70;;;3.90;;
58752;SDS011;44525;46.052;13.610;2023-03-13T02:53:30;6.70;;;4.22;;
58752;SDS011;44525;46.052;13.610;2023-03-13T02:55:57;8.68;;;4.55;;
58752;SDS011;44525;46.052;13.610;2023-03-13T02:58:23;8.18;;;4.32;;
58752;SDS011;44525;46.052;13.610;2023-03-13T03:00:50;6.70;;;4.07;;
58752;SDS011;44525;46.052;13.610;2023-03-13T03:03:16;7.40;;;4.43;;
58752;SDS011;44525;46.052;13.610;2023-03-13T03:05:41;7.57;;;4.15;;
58752;SDS011;44525;46.052;13.610;2023-03-13T03:08:07;7.72;;;4.28;;
58752;SDS011;44525;46.052;13.610;2023-03-13T03:10:34;8.82;;;4.10;;
58752;SDS011;44525;46.052;13.610;2023-03-13T03:13:02;9.32;;;4.45;;
58752;SDS011;44525;46.052;13.610;2023-03-13T03:15:28;6.90;;;3.80;;
58752;SDS011;44525;46.052;13.610;2023-03-13T03:17:53;6.93;;;4.00;;
58752;SDS011;44525;46.052;13.610;2023-03-13T03:20:19;5.32;;;3.83;;
58752;SDS011;44525;46.052;13.610;2023-03-13T03:22:44;7.03;;;4.22;;
58752;SDS011;44525;46.052;13.610;2023-03-13T03:25:09;7.97;;;4.55;;
58752;SDS011;44525;46.052;13.610;2023-03-13T03:27:35;8.50;;;4.70;;
58752;SDS011;44525;46.052;13.610;2023-03-13T03:30:01;8.88;;;4.40;;
58752;SDS011;44525;46.052;13.610;2023-03-13T03:32:28;8.63;;;4.40;;
58752;SDS011;44525;46.052;13.610;2023-03-13T03:34:53;8.45;;;4.93;;
58752;SDS011;44525;46.052;13.610;2023-03-13T03:37:19;10.48;;;5.30;;
58752;SDS011;44525;46.052;13.610;2023-03-13T03:39:44;12.95;;;5.57;;
58752;SDS011;44525;46.052;13.610;2023-03-13T03:42:09;8.63;;;5.22;;
58752;SDS011;44525;46.052;13.610;2023-03-13T03:44:35;8.05;;;5.43;;
58752;SDS011;44525;46.052;13.610;2023-03-13T03:47:00;8.75;;;5.43;;
58752;SDS011;44525;46.052;13.610;2023-03-13T03:49:26;11.57;;;5.00;;
58752;SDS011;44525;46.052;13.610;2023-03-13T03:51:51;9.40;;;5.38;;
58752;SDS011;44525;46.052;13.610;2023-03-13T03:54:16;10.07;;;5.40;;
58752;SDS011;44525;46.052;13.610;2023-03-13T03:56:42;8.93;;;5.60;;
58752;SDS011;44525;46.052;13.610;2023-03-13T03:59:07;8.77;;;5.05;;
58752;SDS011;44525;46.052;13.610;2023-03-13T04:01:32;9.18;;;5.25;;
58752;SDS011;44525;46.052;13.610;2023-03-13T04:03:58;10.10;;;5.97;;
58752;SDS011;44525;46.052;13.610;2023-03-13T04:06:23;7.35;;;5.30;;
58752;SDS011;44525;46.052;13.610;2023-03-13T04:08:48;12.02;;;5.60;;
58752;SDS011;44525;46.052;13.610;2023-03-13T04:11:14;10.50;;;5.75;;
58752;SDS011;44525;46.052;13.610;2023-03-13T04:13:39;10.43;;;5.40;;
58752;SDS011;44525;46.052;13.610;2023-03-13T04:16:05;10.27;;;5.38;;
58752;SDS011;44525;46.052;13.610;2023-03-13T04:18:32;10.55;;;5.20;;
58752;SDS011;44525;46.052;13.610;2023-03-13T04:21:00;10.25;;;4.90;;
58752;SDS011;44525;46.052;13.610;2023-03-13T04:23:27;12.50;;;6.97;;
58752;SDS011;44525;46.052;13.610;2023-03-13T04:25:52;12.75;;;9.50;;
58752;SDS011;44525;46.052;13.610;2023-03-13T04:28:18;13.18;;;8.25;;
58752;SDS011;44525;46.052;13.610;2023-03-13T04:30:43;13.43;;;7.60;;
58752;SDS011;44525;46.052;13.610;2023-03-13T04:33:09;12.90;;;6.68;;
58752;SDS011;44525;46.052;13.610;2023-03-13T04:35:34;12.65;;;6.38;;
58752;SDS011;44525;46.052;13.610;2023-03-13T04:37:59;11.85;;;6.18;;
58752;SDS011;44525;46.052;13.610;2023-03-13T04:40:26;12.07;;;5.90;;
58752;SDS011;44525;46.052;13.610;2023-03-13T04:42:51;12.30;;;5.88;;
58752;SDS011;44525;46.052;13.610;2023-03-13T04:45:17;8.07;;;5.22;;
58752;SDS011;44525;46.052;13.610;2023-03-13T04:47:42;9.55;;;5.65;;
58752;SDS011;44525;46.052;13.610;2023-03-13T04:50:08;11.52;;;5.82;;
58752;SDS011;44525;46.052;13.610;2023-03-13T04:52:33;9.80;;;5.13;;
58752;SDS011;44525;46.052;13.610;2023-03-13T04:54:59;10.95;;;5.10;;
58752;SDS011;44525;46.052;13.610;2023-03-13T04:57:24;8.18;;;4.68;;
58752;SDS011;44525;46.052;13.610;2023-03-13T04:59:50;8.85;;;5.50;;
58752;SDS011;44525;46.052;13.610;2023-03-13T05:02:15;9.27;;;5.25;;
58752;SDS011;44525;46.052;13.610;2023-03-13T05:04:40;8.35;;;5.57;;
58752;SDS011;44525;46.052;13.610;2023-03-13T05:07:06;12.00;;;5.90;;
58752;SDS011;44525;46.052;13.610;2023-03-13T05:09:31;9.30;;;5.22;;
58752;SDS011;44525;46.052;13.610;2023-03-13T05:11:56;9.23;;;5.20;;
58752;SDS011;44525;46.052;13.610;2023-03-13T05:14:22;10.23;;;5.38;;
58752;SDS011;44525;46.052;13.610;2023-03-13T05:16:47;11.35;;;5.20;;
58752;SDS011;44525;46.052;13.610;2023-03-13T05:19:13;8.57;;;5.18;;
58752;SDS011;44525;46.052;13.610;2023-03-13T05:21:38;7.32;;;5.00;;
58752;SDS011;44525;46.052;13.610;2023-03-13T05:24:04;7.68;;;4.53;;
58752;SDS011;44525;46.052;13.610;2023-03-13T05:26:29;9.88;;;5.00;;
58752;SDS011;44525;46.052;13.610;2023-03-13T05:28:54;10.15;;;4.97;;
58752;SDS011;44525;46.052;13.610;2023-03-13T05:31:20;11.20;;;4.80;;
58752;SDS011;44525;46.052;13.610;2023-03-13T05:33:45;7.85;;;4.80;;
58752;SDS011;44525;46.052;13.610;2023-03-13T05:36:11;7.60;;;4.75;;
58752;SDS011;44525;46.052;13.610;2023-03-13T05:38:36;9.90;;;5.22;;
58752;SDS011;44525;46.052;13.610;2023-03-13T05:41:01;12.45;;;5.93;;
58752;SDS011;44525;46.052;13.610;2023-03-13T05:43:27;8.77;;;5.38;;
58752;SDS011;44525;46.052;13.610;2023-03-13T05:45:52;10.93;;;5.80;;
58752;SDS011;44525;46.052;13.610;2023-03-13T05:48:18;9.00;;;5.43;;
58752;SDS011;44525;46.052;13.610;2023-03-13T05:50:43;11.20;;;5.25;;
58752;SDS011;44525;46.052;13.610;2023-03-13T05:53:08;9.20;;;5.70;;
58752;SDS011;44525;46.052;13.610;2023-03-13T05:55:34;10.18;;;5.82;;
58752;SDS011;44525;46.052;13.610;2023-03-13T05:57:59;10.13;;;6.22;;
58752;SDS011;44525;46.052;13.610;2023-03-13T06:00:24;11.10;;;6.30;;
58752;SDS011;44525;46.052;13.610;2023-03-13T06:02:50;12.65;;;7.72;;
58752;SDS011;44525;46.052;13.610;2023-03-13T06:05:15;12.30;;;7.95;;
58752;SDS011;44525;46.052;13.610;2023-03-13T06:07:41;16.63;;;8.95;;
58752;SDS011;44525;46.052;13.610;2023-03-13T06:10:06;15.40;;;9.63;;
58752;SDS011;44525;46.052;13.610;2023-03-13T06:12:32;10.13;;;6.47;;
58752;SDS011;44525;46.052;13.610;2023-03-13T06:14:58;9.18;;;6.28;;
58752;SDS011;44525;46.052;13.610;2023-03-13T06:17:23;13.13;;;6.28;;
58752;SDS011;44525;46.052;13.610;2023-03-13T06:19:49;8.57;;;6.03;;
58752;SDS011;44525;46.052;13.610;2023-03-13T06:22:15;8.35;;;5.70;;
58752;SDS011;44525;46.052;13.610;2023-03-13T06:24:41;10.93;;;5.93;;
58752;SDS011;44525;46.052;13.610;2023-03-13T06:27:08;10.18;;;6.05;;
58752;SDS011;44525;46.052;13.610;2023-03-13T06:29:34;14.68;;;7.85;;
58752;SDS011;44525;46.052;13.610;2023-03-13T06:31:59;12.60;;;8.18;;
58752;SDS011;44525;46.052;13.610;2023-03-13T06:34:25;11.13;;;7.35;;
58752;SDS011;44525;46.052;13.610;2023-03-13T06:36:50;12.68;;;7.30;;
58752;SDS011;44525;46.052;13.610;2023-03-13T06:39:16;13.32;;;6.15;;
58752;SDS011;44525;46.052;13.610;2023-03-13T06:41:41;10.93;;;7.00;;
58752;SDS011;44525;46.052;13.610;2023-03-13T06:44:06;9.38;;;6.30;;
58752;SDS011;44525;46.052;13.610;2023-03-13T06:46:32;11.93;;;6.80;;
58752;SDS011;44525;46.052;13.610;2023-03-13T06:48:57;11.85;;;6.95;;
58752;SDS011;44525;46.052;13.610;2023-03-13T06:51:23;12.32;;;8.25;;
58752;SDS011;44525;46.052;13.610;2023-03-13T06:53:50;14.25;;;7.82;;
58752;SDS011;44525;46.052;13.610;2023-03-13T06:56:16;9.73;;;5.80;;
58752;SDS011;44525;46.052;13.610;2023-03-13T06:58:41;6.85;;;4.60;;
58752;SDS011;44525;46.052;13.610;2023-03-13T07:01:11;10.73;;;6.65;;
58752;SDS011;44525;46.052;13.610;2023-03-13T07:03:38;16.67;;;10.20;;
58752;SDS011;44525;46.052;13.610;2023-03-13T07:06:05;18.48;;;11.32;;
58752;SDS011;44525;46.052;13.610;2023-03-13T07:08:31;18.25;;;9.30;;
58752;SDS011;44525;46.052;13.610;2023-03-13T07:10:58;15.98;;;8.57;;
58752;SDS011;44525;46.052;13.610;2023-03-13T07:13:26;23.08;;;11.57;;
58752;SDS011;44525;46.052;13.610;2023-03-13T07:15:51;14.52;;;9.32;;
58752;SDS011;44525;46.052;13.610;2023-03-13T07:18:17;17.05;;;7.10;;
58752;SDS011;44525;46.052;13.610;2023-03-13T07:20:43;21.08;;;10.73;;
58752;SDS011;44525;46.052;13.610;2023-03-13T07:23:09;15.90;;;8.63;;
58752;SDS011;44525;46.052;13.610;2023-03-13T07:25:34;17.45;;;8.73;;
58752;SDS011;44525;46.052;13.610;2023-03-13T07:27:59;11.80;;;7.40;;
58752;SDS011;44525;46.052;13.610;2023-03-13T07:30:25;17.85;;;6.22;;
58752;SDS011;44525;46.052;13.610;2023-03-13T07:32:51;13.80;;;7.00;;
58752;SDS011;44525;46.052;13.610;2023-03-13T07:35:16;14.75;;;7.40;;
58752;SDS011;44525;46.052;13.610;2023-03-13T07:37:42;10.65;;;5.95;;
58752;SDS011;44525;46.052;13.610;2023-03-13T07:40:07;13.55;;;6.45;;
58752;SDS011;44525;46.052;13.610;2023-03-13T07:42:33;10.93;;;5.90;;
58752;SDS011;44525;46.052;13.610;2023-03-13T07:44:59;11.40;;;5.75;;
58752;SDS011;44525;46.052;13.610;2023-03-13T07:47:24;10.50;;;6.10;;
58752;SDS011;44525;46.052;13.610;2023-03-13T07:49:49;12.25;;;5.80;;
58752;SDS011;44525;46.052;13.610;2023-03-13T07:52:15;10.50;;;5.55;;
58752;SDS011;44525;46.052;13.610;2023-03-13T07:54:41;14.93;;;5.60;;
58752;SDS011;44525;46.052;13.610;2023-03-13T07:57:07;10.68;;;5.45;;
58752;SDS011;44525;46.052;13.610;2023-03-13T07:59:32;15.80;;;7.18;;
58752;SDS011;44525;46.052;13.610;2023-03-13T08:01:58;17.80;;;8.38;;
58752;SDS011;44525;46.052;13.610;2023-03-13T08:04:23;16.40;;;8.15;;
58752;SDS011;44525;46.052;13.610;2023-03-13T08:06:48;9.88;;;5.45;;
58752;SDS011;44525;46.052;13.610;2023-03-13T08:09:15;7.55;;;5.20;;
58752;SDS011;44525;46.052;13.610;2023-03-13T08:11:41;9.70;;;5.50;;
58752;SDS011;44525;46.052;13.610;2023-03-13T08:14:08;10.52;;;5.57;;
58752;SDS011;44525;46.052;13.610;2023-03-13T08:16:33;12.38;;;6.50;;
58752;SDS011;44525;46.052;13.610;2023-03-13T08:18:59;12.02;;;6.10;;
58752;SDS011;44525;46.052;13.610;2023-03-13T08:21:29;11.18;;;5.57;;
58752;SDS011;44525;46.052;13.610;2023-03-13T08:24:00;9.02;;;5.65;;
58752;SDS011;44525;46.052;13.610;2023-03-13T08:26:30;12.02;;;5.63;;
58752;SDS011;44525;46.052;13.610;2023-03-13T08:29:05;9.85;;;6.20;;
58752;SDS011;44525;46.052;13.610;2023-03-13T08:31:36;10.40;;;5.68;;
58752;SDS011;44525;46.052;13.610;2023-03-13T08:34:06;13.63;;;6.10;;
58752;SDS011;44525;46.052;13.610;2023-03-13T08:36:32;9.55;;;5.70;;
58752;SDS011;44525;46.052;13.610;2023-03-13T08:39:00;11.07;;;5.47;;
58752;SDS011;44525;46.052;13.610;2023-03-13T08:41:32;12.00;;;5.75;;
58752;SDS011;44525;46.052;13.610;2023-03-13T08:44:00;11.68;;;5.25;;
58752;SDS011;44525;46.052;13.610;2023-03-13T08:46:27;12.55;;;4.78;;
58752;SDS011;44525;46.052;13.610;2023-03-13T08:48:53;11.07;;;5.32;;
58752;SDS011;44525;46.052;13.610;2023-03-13T08:51:20;11.02;;;5.70;;
58752;SDS011;44525;46.052;13.610;2023-03-13T08:53:47;9.35;;;5.60;;
58752;SDS011;44525;46.052;13.610;2023-03-13T08:56:14;9.25;;;5.85;;
58752;SDS011;44525;46.052;13.610;2023-03-13T08:58:41;10.02;;;5.43;;
58752;SDS011;44525;46.052;13.610;2023-03-13T09:01:08;10.35;;;5.68;;
58752;SDS011;44525;46.052;13.610;2023-03-13T09:03:35;20.27;;;9.13;;
58752;SDS011;44525;46.052;13.610;2023-03-13T09:06:01;46.65;;;21.55;;
58752;SDS011;44525;46.052;13.610;2023-03-13T09:08:28;145.80;;;70.43;;
58752;SDS011;44525;46.052;13.610;2023-03-13T09:10:58;71.32;;;34.05;;
58752;SDS011;44525;46.052;13.610;2023-03-13T09:13:28;23.48;;;12.25;;
58752;SDS011;44525;46.052;13.610;2023-03-13T09:15:55;66.85;;;30.77;;
58752;SDS011;44525;46.052;13.610;2023-03-13T09:18:22;58.97;;;28.45;;
58752;SDS011;44525;46.052;13.610;2023-03-13T09:20:48;57.72;;;29.63;;
58752;SDS011;44525;46.052;13.610;2023-03-13T09:23:14;45.42;;;22.20;;
58752;SDS011;44525;46.052;13.610;2023-03-13T09:25:39;43.05;;;22.58;;
58752;SDS011;44525;46.052;13.610;2023-03-13T09:28:04;37.50;;;19.33;;
58752;SDS011;44525;46.052;13.610;2023-03-13T09:30:30;26.67;;;13.43;;
58752;SDS011;44525;46.052;13.610;2023-03-13T09:32:55;25.27;;;11.80;;
58752;SDS011;44525;46.052;13.610;2023-03-13T09:35:20;36.38;;;13.00;;
58752;SDS011;44525;46.052;13.610;2023-03-13T09:37:46;21.35;;;10.55;;
58752;SDS011;44525;46.052;13.610;2023-03-13T09:40:14;22.55;;;10.10;;
58752;SDS011;44525;46.052;13.610;2023-03-13T09:42:50;21.83;;;10.27;;
58752;SDS011;44525;46.052;13.610;2023-03-13T09:47:56;16.80;;;8.13;;
58752;SDS011;44525;46.052;13.610;2023-03-13T09:50:29;17.13;;;9.30;;
58752;SDS011;44525;46.052;13.610;2023-03-13T09:56:18;18.30;;;10.55;;
58752;SDS011;44525;46.052;13.610;2023-03-13T09:59:32;24.00;;;9.88;;
58752;SDS011;44525;46.052;13.610;2023-03-13T10:01:35;21.90;;;11.45;;
58752;SDS011;44525;46.052;13.610;2023-03-13T10:04:38;13.15;;;8.43;;
58752;SDS011;44525;46.052;13.610;2023-03-13T10:07:10;14.27;;;7.38;;
58752;SDS011;44525;46.052;13.610;2023-03-13T10:09:36;19.08;;;6.13;;
58752;SDS011;44525;46.052;13.610;2023-03-13T10:15:00;12.95;;;7.50;;
58752;SDS011;44525;46.052;13.610;2023-03-13T10:17:39;19.75;;;9.90;;
58752;SDS011;44525;46.052;13.610;2023-03-13T10:22:50;13.55;;;8.35;;
58752;SDS011;44525;46.052;13.610;2023-03-13T10:25:29;12.00;;;7.55;;
58752;SDS011;44525;46.052;13.610;2023-03-13T10:27:57;15.93;;;8.25;;
58752;SDS011;44525;46.052;13.610;2023-03-13T10:33:37;16.50;;;7.63;;
58752;SDS011;44525;46.052;13.610;2023-03-13T10:36:01;11.55;;;6.38;;
58752;SDS011;44525;46.052;13.610;2023-03-13T10:41:34;8.40;;;4.78;;
58752;SDS011;44525;46.052;13.610;2023-03-13T10:44:04;7.82;;;4.47;;
58752;SDS011;44525;46.052;13.610;2023-03-13T10:46:33;11.43;;;5.78;;
58752;SDS011;44525;46.052;13.610;2023-03-13T10:49:10;9.02;;;5.05;;
58752;SDS011;44525;46.052;13.610;2023-03-13T10:51:49;12.77;;;5.45;;
58752;SDS011;44525;46.052;13.610;2023-03-13T10:54:26;6.95;;;4.15;;
58752;SDS011;44525;46.052;13.610;2023-03-13T10:59:55;10.00;;;4.43;;
58752;SDS011;44525;46.052;13.610;2023-03-13T11:02:24;8.70;;;3.97;;
58752;SDS011;44525;46.052;13.610;2023-03-13T11:04:52;8.75;;;4.20;;
58752;SDS011;44525;46.052;13.610;2023-03-13T11:07:25;12.23;;;4.07;;
58752;SDS011;44525;46.052;13.610;2023-03-13T11:10:38;8.35;;;4.75;;
58752;SDS011;44525;46.052;13.610;2023-03-13T11:12:42;6.95;;;3.97;;
58752;SDS011;44525;46.052;13.610;2023-03-13T11:15:17;9.35;;;4.35;;
58752;SDS011;44525;46.052;13.610;2023-03-13T11:18:32;11.48;;;5.20;;
58752;SDS011;44525;46.052;13.610;2023-03-13T11:20:37;9.07;;;4.68;;
58752;SDS011;44525;46.052;13.610;2023-03-13T11:36:57;5.57;;;3.40;;
58752;SDS011;44525;46.052;13.610;2023-03-13T11:39:36;5.35;;;3.28;;
58752;SDS011;44525;46.052;13.610;2023-03-13T11:47:56;4.85;;;2.90;;
58752;SDS011;44525;46.052;13.610;2023-03-13T11:53:13;8.63;;;3.58;;
58752;SDS011;44525;46.052;13.610;2023-03-13T11:56:09;5.38;;;3.00;;
58752;SDS011;44525;46.052;13.610;2023-03-13T12:04:34;11.07;;;3.30;;
58752;SDS011;44525;46.052;13.610;2023-03-13T12:07:52;4.93;;;2.90;;
58752;SDS011;44525;46.052;13.610;2023-03-13T12:09:58;6.85;;;3.47;;
58752;SDS011;44525;46.052;13.610;2023-03-13T12:12:30;7.20;;;2.80;;
58752;SDS011;44525;46.052;13.610;2023-03-13T12:14:58;7.15;;;3.20;;
58752;SDS011;44525;46.052;13.610;2023-03-13T12:17:34;6.22;;;3.13;;
58752;SDS011;44525;46.052;13.610;2023-03-13T12:25:56;6.90;;;3.25;;
58752;SDS011;44525;46.052;13.610;2023-03-13T12:28:47;5.07;;;3.50;;
58752;SDS011;44525;46.052;13.610;2023-03-13T12:31:24;9.25;;;3.65;;
58752;SDS011;44525;46.052;13.610;2023-03-13T12:33:56;12.13;;;4.60;;
58752;SDS011;44525;46.052;13.610;2023-03-13T12:45:16;7.32;;;2.90;;
58752;SDS011;44525;46.052;13.610;2023-03-13T12:53:47;8.73;;;3.10;;
58752;SDS011;44525;46.052;13.610;2023-03-13T13:01:48;6.57;;;3.10;;
58752;SDS011;44525;46.052;13.610;2023-03-13T13:04:18;8.43;;;3.70;;
58752;SDS011;44525;46.052;13.610;2023-03-13T13:06:57;5.55;;;3.08;;
58752;SDS011;44525;46.052;13.610;2023-03-13T13:11:55;5.45;;;3.10;;
58752;SDS011;44525;46.052;13.610;2023-03-13T13:14:53;8.10;;;3.90;;
58752;SDS011;44525;46.052;13.610;2023-03-13T13:17:29;7.43;;;3.60;;
58752;SDS011;44525;46.052;13.610;2023-03-13T13:22:50;8.15;;;4.13;;
58752;SDS011;44525;46.052;13.610;2023-03-13T13:32:42;6.53;;;3.25;;
58752;SDS011;44525;46.052;13.610;2023-03-13T13:37:40;8.20;;;3.63;;
58752;SDS011;44525;46.052;13.610;2023-03-13T13:42:54;6.45;;;3.50;;
58752;SDS011;44525;46.052;13.610;2023-03-13T13:48:14;6.80;;;3.38;;
58752;SDS011;44525;46.052;13.610;2023-03-13T13:53:54;10.18;;;5.00;;
58752;SDS011;44525;46.052;13.610;2023-03-13T14:01:39;8.38;;;3.30;;
58752;SDS011;44525;46.052;13.610;2023-03-13T14:04:26;8.50;;;3.47;;
58752;SDS011;44525;46.052;13.610;2023-03-13T14:06:51;5.72;;;3.50;;
58752;SDS011;44525;46.052;13.610;2023-03-13T14:11:57;16.83;;;7.72;;
58752;SDS011;44525;46.052;13.610;2023-03-13T14:14:22;14.60;;;7.53;;
58752;SDS011;44525;46.052;13.610;2023-03-13T14:16:48;10.55;;;6.28;;
58752;SDS011;44525;46.052;13.610;2023-03-13T14:22:00;12.52;;;3.90;;
58752;SDS011;44525;46.052;13.610;2023-03-13T14:24:31;7.55;;;3.58;;
58752;SDS011;44525;46.052;13.610;2023-03-13T14:26:57;7.35;;;3.50;;
58752;SDS011;44525;46.052;13.610;2023-03-13T14:29:22;9.35;;;4.53;;
58752;SDS011;44525;46.052;13.610;2023-03-13T14:31:52;9.02;;;7.68;;
58752;SDS011;44525;46.052;13.610;2023-03-13T14:34:19;8.23;;;5.05;;
58752;SDS011;44525;46.052;13.610;2023-03-13T14:36:52;6.88;;;4.45;;
58752;SDS011;44525;46.052;13.610;2023-03-13T14:39:18;5.95;;;3.50;;
58752;SDS011;44525;46.052;13.610;2023-03-13T14:41:46;6.10;;;3.60;;
58752;SDS011;44525;46.052;13.610;2023-03-13T14:44:23;4.82;;;3.55;;
58752;SDS011;44525;46.052;13.610;2023-03-13T14:46:54;9.05;;;3.78;;
58752;SDS011;44525;46.052;13.610;2023-03-13T14:49:23;6.07;;;3.70;;
58752;SDS011;44525;46.052;13.610;2023-03-13T14:52:00;9.05;;;3.55;;
58752;SDS011;44525;46.052;13.610;2023-03-13T14:54:32;11.32;;;5.18;;
58752;SDS011;44525;46.052;13.610;2023-03-13T14:57:11;6.57;;;2.80;;
58752;SDS011;44525;46.052;13.610;2023-03-13T14:59:40;5.47;;;2.80;;
58752;SDS011;44525;46.052;13.610;2023-03-13T15:04:54;6.72;;;3.30;;
58752;SDS011;44525;46.052;13.610;2023-03-13T15:07:24;6.80;;;3.28;;
58752;SDS011;44525;46.052;13.610;2023-03-13T15:10:43;6.03;;;3.03;;
58752;SDS011;44525;46.052;13.610;2023-03-13T15:15:53;8.27;;;4.18;;
58752;SDS011;44525;46.052;13.610;2023-03-13T15:18:20;4.50;;;2.70;;
58752;SDS011;44525;46.052;13.610;2023-03-13T15:20:48;18.83;;;9.55;;
58752;SDS011;44525;46.052;13.610;2023-03-13T15:23:14;5.55;;;3.05;;
58752;SDS011;44525;46.052;13.610;2023-03-13T15:25:40;6.45;;;3.10;;
58752;SDS011;44525;46.052;13.610;2023-03-13T15:28:16;11.38;;;5.78;;
58752;SDS011;44525;46.052;13.610;2023-03-13T15:30:48;13.93;;;7.55;;
58752;SDS011;44525;46.052;13.610;2023-03-13T15:33:16;14.35;;;5.07;;
58752;SDS011;44525;46.052;13.610;2023-03-13T15:35:44;6.90;;;3.20;;
58752;SDS011;44525;46.052;13.610;2023-03-13T15:38:14;5.88;;;3.22;;
58752;SDS011;44525;46.052;13.610;2023-03-13T15:40:42;13.63;;;4.88;;
58752;SDS011;44525;46.052;13.610;2023-03-13T15:43:08;7.65;;;3.35;;
58752;SDS011;44525;46.052;13.610;2023-03-13T15:45:39;5.97;;;2.90;;
58752;SDS011;44525;46.052;13.610;2023-03-13T15:48:24;6.50;;;2.85;;
58752;SDS011;44525;46.052;13.610;2023-03-13T15:50:55;7.45;;;2.85;;
58752;SDS011;44525;46.052;13.610;2023-03-13T15:53:24;21.85;;;13.50;;
58752;SDS011;44525;46.052;13.610;2023-03-13T15:55:52;11.48;;;7.63;;
58752;SDS011;44525;46.052;13.610;2023-03-13T15:58:18;6.93;;;3.95;;
58752;SDS011;44525;46.052;13.610;2023-03-13T16:00:44;5.57;;;3.15;;
58752;SDS011;44525;46.052;13.610;2023-03-13T16:03:28;5.25;;;3.33;;
58752;SDS011;44525;46.052;13.610;2023-03-13T16:05:54;6.60;;;3.60;;
58752;SDS011;44525;46.052;13.610;2023-03-13T16:08:21;4.15;;;2.78;;
58752;SDS011;44525;46.052;13.610;2023-03-13T16:10:49;5.80;;;3.45;;
58752;SDS011;44525;46.052;13.610;2023-03-13T16:13:14;7.50;;;3.20;;
58752;SDS011;44525;46.052;13.610;2023-03-13T16:15:40;7.63;;;3.22;;
58752;SDS011;44525;46.052;13.610;2023-03-13T16:18:12;7.03;;;4.05;;
58752;SDS011;44525;46.052;13.610;2023-03-13T16:20:42;7.03;;;3.95;;
58752;SDS011;44525;46.052;13.610;2023-03-13T16:23:08;5.38;;;3.13;;
58752;SDS011;44525;46.052;13.610;2023-03-13T16:25:33;7.43;;;4.72;;
58752;SDS011;44525;46.052;13.610;2023-03-13T16:27:59;7.03;;;3.30;;
58752;SDS011;44525;46.052;13.610;2023-03-13T16:30:29;6.07;;;3.67;;
58752;SDS011;44525;46.052;13.610;2023-03-13T16:32:56;7.97;;;3.85;;
58752;SDS011;44525;46.052;13.610;2023-03-13T16:35:22;8.93;;;5.60;;
58752;SDS011;44525;46.052;13.610;2023-03-13T16:37:50;8.32;;;5.00;;
58752;SDS011;44525;46.052;13.610;2023-03-13T16:40:21;6.40;;;3.85;;
58752;SDS011;44525;46.052;13.610;2023-03-13T16:42:49;14.73;;;7.80;;
58752;SDS011;44525;46.052;13.610;2023-03-13T16:45:14;11.50;;;7.40;;
58752;SDS011;44525;46.052;13.610;2023-03-13T16:47:41;70.65;;;47.28;;